Oceanis — SVBC9 — position and weather

sailwx.info

Track history (hours):
 
Tides and Currents Weather Stations Pressure Air Temp Water Temp Dewpoint Dewpoint Depression Visibility Wind Speed Wind Dir Waves Ship Positions

Oceanis

Last reported at 2014-Sep-21 06:33 UTC. Time now 2014-Sep-22 00:11 UTC.
Position N 31°50' W 117°41'.

Length 330 m; draft 11.3 m.

Type: Tanker. MMSI: 241089000.

Date/timePositionNaut miles runAvg speedWind from/ knotsBaromVisibWave heightAir tempDewpointWater temp
2014-Sep-21 06:33N 31°50' W 117°41'1313.0
2014-Sep-21 05:33N 32°03' W 117°43'1313.1
2014-Sep-21 04:34N 32°16' W 117°45'1313.2
2014-Sep-21 03:34N 32°29' W 117°47'1312.8
2014-Sep-21 02:34N 32°42' W 117°49'1312.7
2014-Sep-21 01:34N 32°54' W 117°51'1212.4
2014-Sep-21 00:34N 33°06' W 117°57'1212.0
2014-Sep-20 23:34N 33°16' W 118°04'1111.0
2014-Sep-20 22:33N 33°26' W 118°09'1211.4
2014-Sep-20 21:28N 33°39' W 118°12'6 6.6
2014-Sep-20 20:34N 33°45' W 118°13'1 0.9
2014-Sep-20 19:34N 33°45' W 118°13'0 0.0
2014-Sep-20 18:33N 33°45' W 118°13'0 0.0
2014-Sep-20 17:33N 33°45' W 118°13'0 0.0
2014-Sep-20 16:30N 33°45' W 118°13'0 0.0
2014-Sep-20 15:30N 33°45' W 118°13'0 0.0
2014-Sep-20 14:33N 33°45' W 118°13'0 0.0
2014-Sep-20 13:33N 33°45' W 118°13'0 0.0
2014-Sep-20 12:33N 33°45' W 118°13'0 0.0
2014-Sep-20 11:33N 33°45' W 118°13'0 0.0
2014-Sep-20 10:30N 33°45' W 118°13'0 0.0
2014-Sep-20 09:33N 33°45' W 118°13'0 0.0
2014-Sep-20 08:33N 33°45' W 118°13'0 0.0
2014-Sep-20 07:33N 33°45' W 118°13'0 0.0
2014-Sep-20 06:30N 33°45' W 118°13'0 0.0
2014-Sep-20 05:33N 33°45' W 118°13'0 0.0
2014-Sep-20 04:33N 33°45' W 118°13'0 0.0
2014-Sep-20 03:33N 33°45' W 118°13'0 0.0
2014-Sep-20 02:33N 33°45' W 118°13'0 0.0
2014-Sep-20 01:33N 33°45' W 118°13'0 0.0
2014-Sep-20 00:33N 33°45' W 118°13'0 0.0
2014-Sep-19 23:33N 33°45' W 118°13'0 0.0
2014-Sep-19 22:33N 33°45' W 118°13'0 0.0
2014-Sep-19 21:33N 33°45' W 118°13'0 0.0
2014-Sep-19 20:33N 33°45' W 118°13'0 0.0
2014-Sep-19 19:30N 33°45' W 118°13'0 0.0
2014-Sep-19 18:33N 33°45' W 118°13'1 1.4
2014-Sep-19 17:33N 33°44' W 118°12'3 2.6
2014-Sep-19 16:32N 33°44' W 118°09'0 0.0
2014-Sep-19 15:32N 33°44' W 118°09'0 0.0
2014-Sep-19 14:32N 33°44' W 118°09'0 0.0
2014-Sep-19 13:32N 33°44' W 118°09'0 0.0
2014-Sep-19 12:32N 33°44' W 118°09'0 0.0
2014-Sep-19 11:32N 33°44' W 118°09'0 0.1
2014-Sep-19 10:32N 33°44' W 118°09'0 0.0
2014-Sep-19 09:32N 33°44' W 118°09'0 0.1
2014-Sep-19 08:32N 33°44' W 118°09'0 0.0
2014-Sep-19 07:29N 33°44' W 118°09'0 0.0
2014-Sep-19 06:29N 33°44' W 118°09'0 0.0
2014-Sep-19 05:29N 33°44' W 118°09'0 0.0
2014-Sep-19 04:32N 33°44' W 118°09'0 0.0
2014-Sep-19 03:32N 33°44' W 118°09'0 0.0
2014-Sep-19 02:23N 33°44' W 118°09'0 0.1
2014-Sep-19 01:32N 33°44' W 118°09'0 0.0
2014-Sep-19 00:29N 33°44' W 118°09'0 0.0
2014-Sep-18 23:32N 33°44' W 118°09'0 0.0
2014-Sep-18 22:32N 33°44' W 118°09'0 0.0
2014-Sep-18 21:32N 33°44' W 118°09'0 0.0
2014-Sep-18 20:32N 33°44' W 118°09'0 0.1
2014-Sep-18 19:32N 33°44' W 118°09'0 0.0
2014-Sep-18 18:32N 33°44' W 118°09'0 0.1
2014-Sep-18 17:29N 33°44' W 118°09'0 0.0
2014-Sep-18 16:32N 33°44' W 118°09'0 0.0
2014-Sep-18 15:32N 33°44' W 118°09'0 0.0
2014-Sep-18 14:32N 33°44' W 118°09'0 0.1
2014-Sep-18 13:32N 33°44' W 118°09'0 0.1
2014-Sep-18 12:32N 33°44' W 118°09'0 0.0
2014-Sep-18 11:32N 33°44' W 118°09'0 0.1
2014-Sep-18 10:32N 33°44' W 118°09'0 0.1
2014-Sep-18 09:32N 33°44' W 118°09'0 0.1
2014-Sep-18 08:32N 33°44' W 118°09'0 0.0
2014-Sep-18 07:32N 33°44' W 118°09'0 0.1
2014-Sep-18 06:32N 33°44' W 118°09'0 0.0
2014-Sep-18 05:32N 33°44' W 118°09'0 0.1
2014-Sep-18 04:32N 33°44' W 118°09'0 0.1
2014-Sep-18 03:32N 33°44' W 118°09'0 0.1
2014-Sep-18 02:32N 33°44' W 118°09'0 0.0
2014-Sep-18 01:32N 33°44' W 118°09'0 0.0
2014-Sep-18 00:32N 33°44' W 118°09'0 0.0
2014-Sep-17 23:32N 33°44' W 118°09'0 0.0
2014-Sep-17 22:32N 33°44' W 118°09'0 0.0
2014-Sep-17 21:32N 33°44' W 118°09'0 0.1
2014-Sep-17 20:32N 33°44' W 118°09'0 0.0
2014-Sep-17 19:32N 33°44' W 118°09'0 0.0
2014-Sep-17 18:32N 33°44' W 118°09'0 0.0
2014-Sep-17 17:29N 33°44' W 118°09'0 0.0
2014-Sep-17 16:32N 33°44' W 118°09'0 0.0
2014-Sep-17 15:32N 33°44' W 118°09'0 0.1
2014-Sep-17 14:32N 33°44' W 118°09'0 0.0
2014-Sep-17 13:32N 33°44' W 118°09'0 0.0
2014-Sep-17 12:32N 33°44' W 118°09'0 0.0
2014-Sep-17 11:32N 33°44' W 118°09'0 0.0
2014-Sep-17 10:32N 33°44' W 118°09'0 0.1
2014-Sep-17 09:32N 33°44' W 118°09'0 0.1
2014-Sep-17 08:32N 33°44' W 118°09'0 0.1
2014-Sep-17 07:32N 33°44' W 118°09'0 0.0
2014-Sep-17 06:32N 33°44' W 118°09'0 0.0
2014-Sep-17 05:32N 33°44' W 118°09'0 0.0
2014-Sep-17 04:32N 33°44' W 118°09'0 0.1
2014-Sep-17 03:32N 33°44' W 118°09'0 0.1
2014-Sep-17 02:32N 33°44' W 118°09'0 0.0
2014-Sep-17 01:32N 33°44' W 118°09'0 0.1
2014-Sep-17 00:32N 33°44' W 118°09'0 0.0
2014-Sep-16 23:32N 33°44' W 118°09'0 0.1
2014-Sep-16 22:32N 33°44' W 118°09'0 0.0
2014-Sep-16 21:32N 33°44' W 118°09'0 0.0
2014-Sep-16 20:32N 33°44' W 118°09'0 0.1
2014-Sep-16 19:32N 33°44' W 118°09'0 0.0
2014-Sep-16 18:32N 33°44' W 118°09'0 0.0
2014-Sep-16 17:32N 33°44' W 118°09'0 0.1
2014-Sep-16 16:32N 33°44' W 118°09'0 0.1
2014-Sep-16 15:32N 33°44' W 118°10'0 0.0
2014-Sep-16 14:32N 33°44' W 118°10'0 0.0
2014-Sep-16 13:29N 33°44' W 118°10'0 0.0
2014-Sep-16 12:32N 33°44' W 118°10'0 0.0
2014-Sep-16 11:32N 33°44' W 118°10'0 0.0
2014-Sep-16 10:32N 33°44' W 118°10'0 0.0
2014-Sep-16 09:32N 33°44' W 118°10'0 0.0
2014-Sep-16 08:32N 33°44' W 118°10'0 0.2
2014-Sep-16 07:32N 33°44' W 118°09'0 0.1
2014-Sep-16 06:32N 33°44' W 118°09'0 0.0
2014-Sep-16 05:32N 33°44' W 118°09'0 0.0
2014-Sep-16 04:32N 33°44' W 118°09'0 0.0
2014-Sep-16 03:32N 33°44' W 118°09'0 0.0
2014-Sep-16 02:32N 33°44' W 118°09'0 0.0
2014-Sep-16 01:32N 33°44' W 118°09'0 0.1
2014-Sep-16 00:32N 33°44' W 118°09'0 0.1
2014-Sep-15 23:32N 33°44' W 118°09'0 0.0
2014-Sep-15 22:32N 33°44' W 118°09'0 0.0
2014-Sep-15 21:32N 33°44' W 118°09'0 0.1
2014-Sep-15 20:32N 33°44' W 118°09'0 0.1
2014-Sep-15 19:32N 33°44' W 118°09'0 0.1
2014-Sep-15 18:32N 33°44' W 118°09'0 0.1
2014-Sep-15 17:32N 33°44' W 118°09'0 0.1
2014-Sep-15 16:32N 33°44' W 118°09'0 0.1
2014-Sep-15 15:32N 33°44' W 118°09'0 0.1
2014-Sep-15 14:32N 33°44' W 118°09'0 0.0
2014-Sep-15 13:32N 33°44' W 118°09'0 0.1
2014-Sep-15 12:32N 33°44' W 118°09'0 0.0
2014-Sep-15 11:32N 33°44' W 118°09'0 0.0
2014-Sep-15 10:32N 33°44' W 118°09'0 0.0
2014-Sep-15 09:32N 33°44' W 118°09'0 0.0
2014-Sep-15 08:32N 33°44' W 118°09'0 0.1
2014-Sep-15 07:32N 33°44' W 118°09'0 0.1
2014-Sep-15 06:32N 33°44' W 118°09'0 0.0
2014-Sep-15 05:32N 33°44' W 118°09'0 0.0
2014-Sep-15 04:32N 33°44' W 118°09'0 0.1
2014-Sep-15 03:32N 33°44' W 118°09'0 0.0
2014-Sep-15 02:32N 33°44' W 118°09'0 0.0
2014-Sep-15 01:32N 33°44' W 118°09'0 0.0
2014-Sep-15 00:32N 33°44' W 118°09'0 0.0
2014-Sep-14 23:29N 33°44' W 118°09'0 0.0
2014-Sep-14 22:32N 33°44' W 118°09'0 0.0
2014-Sep-14 21:32N 33°44' W 118°09'0 0.0
2014-Sep-14 20:32N 33°44' W 118°09'0 0.1
2014-Sep-14 19:32N 33°44' W 118°09'0 0.1
2014-Sep-14 18:32N 33°44' W 118°09'0 0.0
2014-Sep-14 17:32N 33°44' W 118°09'0 0.1
2014-Sep-14 16:32N 33°44' W 118°09'0 0.0
2014-Sep-14 15:32N 33°44' W 118°09'0 0.1
2014-Sep-14 14:32N 33°44' W 118°09'0 0.1
2014-Sep-14 13:32N 33°44' W 118°09'0 0.0
2014-Sep-14 12:32N 33°44' W 118°09'0 0.1
2014-Sep-14 11:32N 33°44' W 118°09'0 0.1
2014-Sep-14 10:32N 33°44' W 118°09'0 0.1
2014-Sep-14 09:32N 33°44' W 118°09'0 0.1
2014-Sep-14 08:32N 33°44' W 118°09'0 0.1
2014-Sep-14 07:32N 33°44' W 118°09'0 0.1
2014-Sep-14 06:32N 33°44' W 118°09'0 0.1
2014-Sep-14 05:32N 33°44' W 118°09'0 0.0
2014-Sep-14 04:32N 33°44' W 118°09'0 0.0
2014-Sep-14 03:32N 33°44' W 118°09'0 0.0
2014-Sep-14 02:32N 33°44' W 118°09'0 0.0
2014-Sep-14 01:32N 33°44' W 118°09'0 0.0
2014-Sep-13 21:32N 33°44' W 118°09'0 0.1
2014-Sep-13 20:32N 33°44' W 118°09'0 0.0
2014-Sep-13 19:32N 33°44' W 118°09'0 0.0
2014-Sep-13 18:32N 33°44' W 118°09'0 0.0
2014-Sep-13 17:32N 33°44' W 118°09'0 0.1
2014-Sep-13 16:32N 33°44' W 118°09'0 0.1
2014-Sep-13 15:32N 33°44' W 118°09'0 0.0
2014-Sep-13 14:32N 33°44' W 118°09'0 0.0
2014-Sep-13 13:32N 33°44' W 118°09'0 0.0
2014-Sep-13 12:33N 33°44' W 118°09'0 0.0
2014-Sep-13 11:33N 33°44' W 118°09'0 0.0
2014-Sep-13 10:33N 33°44' W 118°09'0 0.3
2014-Sep-13 09:33N 33°44' W 118°10'0 0.1
2014-Sep-13 08:34N 33°44' W 118°10'2 2.1
2014-Sep-13 07:33N 33°44' W 118°12'2 1.7
2014-Sep-13 06:33N 33°45' W 118°13'0 0.0
2014-Sep-13 05:33N 33°45' W 118°13'0 0.0
2014-Sep-13 04:27N 33°45' W 118°13'0 0.0
2014-Sep-13 03:33N 33°45' W 118°13'0 0.0
2014-Sep-13 02:09N 33°45' W 118°13'0 0.0
2014-Sep-13 01:21N 33°45' W 118°13'0 0.0
2014-Sep-13 00:24N 33°45' W 118°13'0 0.0
2014-Sep-12 23:24N 33°45' W 118°13'0 0.0
2014-Sep-12 20:27N 33°45' W 118°13'0 0.0
2014-Sep-12 19:24N 33°45' W 118°13'0 0.0
2014-Sep-12 18:27N 33°45' W 118°13'0 0.0
2014-Sep-12 17:27N 33°45' W 118°13'0 0.0
2014-Sep-12 16:33N 33°45' W 118°13'0 0.0
2014-Sep-12 15:03N 33°45' W 118°13'0 0.0
2014-Sep-12 14:33N 33°45' W 118°13'0 0.0
2014-Sep-12 13:33N 33°45' W 118°13'0 0.0
2014-Sep-12 12:27N 33°45' W 118°13'0 0.0
2014-Sep-12 11:33N 33°45' W 118°13'0 0.0
2014-Sep-12 10:33N 33°45' W 118°13'0 0.0
2014-Sep-12 09:33N 33°45' W 118°13'0 0.0
2014-Sep-12 08:34N 33°45' W 118°13'2 2.1
2014-Sep-12 07:34N 33°44' W 118°11'1 1.4
2014-Sep-12 06:31N 33°44' W 118°10'0 0.0
2014-Sep-12 05:31N 33°44' W 118°10'0 0.0
2014-Sep-12 04:31N 33°44' W 118°10'0 0.0
2014-Sep-12 03:31N 33°44' W 118°10'0 0.0
2014-Sep-12 02:31N 33°44' W 118°10'0 0.0
2014-Sep-12 01:31N 33°44' W 118°10'0 0.1
2014-Sep-12 00:31N 33°44' W 118°10'0 0.1
2014-Sep-11 23:31N 33°44' W 118°10'0 0.0
2014-Sep-11 22:31N 33°44' W 118°10'0 0.0
2014-Sep-11 21:31N 33°44' W 118°10'0 0.0
2014-Sep-11 20:31N 33°44' W 118°10'0 0.0
2014-Sep-11 19:31N 33°44' W 118°10'0 0.0
2014-Sep-11 18:31N 33°44' W 118°10'0 0.0
2014-Sep-11 17:31N 33°44' W 118°10'0 0.1
2014-Sep-11 16:31N 33°44' W 118°10'0 0.0
2014-Sep-11 15:31N 33°44' W 118°10'0 0.1
2014-Sep-11 14:31N 33°44' W 118°10'0 0.1
2014-Sep-11 13:31N 33°44' W 118°10'0 0.0
2014-Sep-11 12:31N 33°44' W 118°10'0 0.1
2014-Sep-11 11:31N 33°44' W 118°10'0 0.1
2014-Sep-11 10:31N 33°44' W 118°10'0 0.2
2014-Sep-11 09:31N 33°44' W 118°10'0 0.0
2014-Sep-11 08:31N 33°44' W 118°10'0 0.1
2014-Sep-11 07:31N 33°44' W 118°10'  
Track history (hours):
 
Tides and Currents Weather Stations Pressure Air Temp Water Temp Dewpoint Dewpoint Depression Visibility Wind Speed Wind Dir Waves Ship Positions

Oceanis

Last reported at 2014-Sep-21 06:33 UTC. Time now 2014-Sep-22 00:11 UTC.
Position N 31°50' W 117°41'.

Length 330 m; draft 11.3 m.

Type: Tanker. MMSI: 241089000.

Date/timePositionNaut miles runAvg speedWind from/ knotsBaromVisibWave heightAir tempDewpointWater temp
2014-Sep-21 06:33N 31°50' W 117°41'1313.0
2014-Sep-21 05:33N 32°03' W 117°43'1313.1
2014-Sep-21 04:34N 32°16' W 117°45'1313.2
2014-Sep-21 03:34N 32°29' W 117°47'1312.8
2014-Sep-21 02:34N 32°42' W 117°49'1312.7
2014-Sep-21 01:34N 32°54' W 117°51'1212.4
2014-Sep-21 00:34N 33°06' W 117°57'1212.0
2014-Sep-20 23:34N 33°16' W 118°04'1111.0
2014-Sep-20 22:33N 33°26' W 118°09'1211.4
2014-Sep-20 21:28N 33°39' W 118°12'6 6.6
2014-Sep-20 20:34N 33°45' W 118°13'1 0.9
2014-Sep-20 19:34N 33°45' W 118°13'0 0.0
2014-Sep-20 18:33N 33°45' W 118°13'0 0.0
2014-Sep-20 17:33N 33°45' W 118°13'0 0.0
2014-Sep-20 16:30N 33°45' W 118°13'0 0.0
2014-Sep-20 15:30N 33°45' W 118°13'0 0.0
2014-Sep-20 14:33N 33°45' W 118°13'0 0.0
2014-Sep-20 13:33N 33°45' W 118°13'0 0.0
2014-Sep-20 12:33N 33°45' W 118°13'0 0.0
2014-Sep-20 11:33N 33°45' W 118°13'0 0.0
2014-Sep-20 10:30N 33°45' W 118°13'0 0.0
2014-Sep-20 09:33N 33°45' W 118°13'0 0.0
2014-Sep-20 08:33N 33°45' W 118°13'0 0.0
2014-Sep-20 07:33N 33°45' W 118°13'0 0.0
2014-Sep-20 06:30N 33°45' W 118°13'0 0.0
2014-Sep-20 05:33N 33°45' W 118°13'0 0.0
2014-Sep-20 04:33N 33°45' W 118°13'0 0.0
2014-Sep-20 03:33N 33°45' W 118°13'0 0.0
2014-Sep-20 02:33N 33°45' W 118°13'0 0.0
2014-Sep-20 01:33N 33°45' W 118°13'0 0.0
2014-Sep-20 00:33N 33°45' W 118°13'0 0.0
2014-Sep-19 23:33N 33°45' W 118°13'0 0.0
2014-Sep-19 22:33N 33°45' W 118°13'0 0.0
2014-Sep-19 21:33N 33°45' W 118°13'0 0.0
2014-Sep-19 20:33N 33°45' W 118°13'0 0.0
2014-Sep-19 19:30N 33°45' W 118°13'0 0.0
2014-Sep-19 18:33N 33°45' W 118°13'1 1.4
2014-Sep-19 17:33N 33°44' W 118°12'3 2.6
2014-Sep-19 16:32N 33°44' W 118°09'0 0.0
2014-Sep-19 15:32N 33°44' W 118°09'0 0.0
2014-Sep-19 14:32N 33°44' W 118°09'0 0.0
2014-Sep-19 13:32N 33°44' W 118°09'0 0.0
2014-Sep-19 12:32N 33°44' W 118°09'0 0.0
2014-Sep-19 11:32N 33°44' W 118°09'0 0.1
2014-Sep-19 10:32N 33°44' W 118°09'0 0.0
2014-Sep-19 09:32N 33°44' W 118°09'0 0.1
2014-Sep-19 08:32N 33°44' W 118°09'0 0.0
2014-Sep-19 07:29N 33°44' W 118°09'0 0.0
2014-Sep-19 06:29N 33°44' W 118°09'0 0.0
2014-Sep-19 05:29N 33°44' W 118°09'0 0.0
2014-Sep-19 04:32N 33°44' W 118°09'0 0.0
2014-Sep-19 03:32N 33°44' W 118°09'0 0.0
2014-Sep-19 02:23N 33°44' W 118°09'0 0.1
2014-Sep-19 01:32N 33°44' W 118°09'0 0.0
2014-Sep-19 00:29N 33°44' W 118°09'0 0.0
2014-Sep-18 23:32N 33°44' W 118°09'0 0.0
2014-Sep-18 22:32N 33°44' W 118°09'0 0.0
2014-Sep-18 21:32N 33°44' W 118°09'0 0.0
2014-Sep-18 20:32N 33°44' W 118°09'0 0.1
2014-Sep-18 19:32N 33°44' W 118°09'0 0.0
2014-Sep-18 18:32N 33°44' W 118°09'0 0.1
2014-Sep-18 17:29N 33°44' W 118°09'0 0.0
2014-Sep-18 16:32N 33°44' W 118°09'0 0.0
2014-Sep-18 15:32N 33°44' W 118°09'0 0.0
2014-Sep-18 14:32N 33°44' W 118°09'0 0.1
2014-Sep-18 13:32N 33°44' W 118°09'0 0.1
2014-Sep-18 12:32N 33°44' W 118°09'0 0.0
2014-Sep-18 11:32N 33°44' W 118°09'0 0.1
2014-Sep-18 10:32N 33°44' W 118°09'0 0.1
2014-Sep-18 09:32N 33°44' W 118°09'0 0.1
2014-Sep-18 08:32N 33°44' W 118°09'0 0.0
2014-Sep-18 07:32N 33°44' W 118°09'0 0.1
2014-Sep-18 06:32N 33°44' W 118°09'0 0.0
2014-Sep-18 05:32N 33°44' W 118°09'0 0.1
2014-Sep-18 04:32N 33°44' W 118°09'0 0.1
2014-Sep-18 03:32N 33°44' W 118°09'0 0.1
2014-Sep-18 02:32N 33°44' W 118°09'0 0.0
2014-Sep-18 01:32N 33°44' W 118°09'0 0.0
2014-Sep-18 00:32N 33°44' W 118°09'0 0.0
2014-Sep-17 23:32N 33°44' W 118°09'0 0.0
2014-Sep-17 22:32N 33°44' W 118°09'0 0.0
2014-Sep-17 21:32N 33°44' W 118°09'0 0.1
2014-Sep-17 20:32N 33°44' W 118°09'0 0.0
2014-Sep-17 19:32N 33°44' W 118°09'0 0.0
2014-Sep-17 18:32N 33°44' W 118°09'0 0.0
2014-Sep-17 17:29N 33°44' W 118°09'0 0.0
2014-Sep-17 16:32N 33°44' W 118°09'0 0.0
2014-Sep-17 15:32N 33°44' W 118°09'0 0.1
2014-Sep-17 14:32N 33°44' W 118°09'0 0.0
2014-Sep-17 13:32N 33°44' W 118°09'0 0.0
2014-Sep-17 12:32N 33°44' W 118°09'0 0.0
2014-Sep-17 11:32N 33°44' W 118°09'0 0.0
2014-Sep-17 10:32N 33°44' W 118°09'0 0.1
2014-Sep-17 09:32N 33°44' W 118°09'0 0.1
2014-Sep-17 08:32N 33°44' W 118°09'0 0.1
2014-Sep-17 07:32N 33°44' W 118°09'0 0.0
2014-Sep-17 06:32N 33°44' W 118°09'0 0.0
2014-Sep-17 05:32N 33°44' W 118°09'0 0.0
2014-Sep-17 04:32N 33°44' W 118°09'0 0.1
2014-Sep-17 03:32N 33°44' W 118°09'0 0.1
2014-Sep-17 02:32N 33°44' W 118°09'0 0.0
2014-Sep-17 01:32N 33°44' W 118°09'0 0.1
2014-Sep-17 00:32N 33°44' W 118°09'0 0.0
2014-Sep-16 23:32N 33°44' W 118°09'0 0.1
2014-Sep-16 22:32N 33°44' W 118°09'0 0.0
2014-Sep-16 21:32N 33°44' W 118°09'0 0.0
2014-Sep-16 20:32N 33°44' W 118°09'0 0.1
2014-Sep-16 19:32N 33°44' W 118°09'0 0.0
2014-Sep-16 18:32N 33°44' W 118°09'0 0.0
2014-Sep-16 17:32N 33°44' W 118°09'0 0.1
2014-Sep-16 16:32N 33°44' W 118°09'0 0.1
2014-Sep-16 15:32N 33°44' W 118°10'0 0.0
2014-Sep-16 14:32N 33°44' W 118°10'0 0.0
2014-Sep-16 13:29N 33°44' W 118°10'0 0.0
2014-Sep-16 12:32N 33°44' W 118°10'0 0.0
2014-Sep-16 11:32N 33°44' W 118°10'0 0.0
2014-Sep-16 10:32N 33°44' W 118°10'0 0.0
2014-Sep-16 09:32N 33°44' W 118°10'0 0.0
2014-Sep-16 08:32N 33°44' W 118°10'0 0.2
2014-Sep-16 07:32N 33°44' W 118°09'0 0.1
2014-Sep-16 06:32N 33°44' W 118°09'0 0.0
2014-Sep-16 05:32N 33°44' W 118°09'0 0.0
2014-Sep-16 04:32N 33°44' W 118°09'0 0.0
2014-Sep-16 03:32N 33°44' W 118°09'0 0.0
2014-Sep-16 02:32N 33°44' W 118°09'0 0.0
2014-Sep-16 01:32N 33°44' W 118°09'0 0.1
2014-Sep-16 00:32N 33°44' W 118°09'0 0.1
2014-Sep-15 23:32N 33°44' W 118°09'0 0.0
2014-Sep-15 22:32N 33°44' W 118°09'0 0.0
2014-Sep-15 21:32N 33°44' W 118°09'0 0.1
2014-Sep-15 20:32N 33°44' W 118°09'0 0.1
2014-Sep-15 19:32N 33°44' W 118°09'0 0.1
2014-Sep-15 18:32N 33°44' W 118°09'0 0.1
2014-Sep-15 17:32N 33°44' W 118°09'0 0.1
2014-Sep-15 16:32N 33°44' W 118°09'0 0.1
2014-Sep-15 15:32N 33°44' W 118°09'0 0.1
2014-Sep-15 14:32N 33°44' W 118°09'0 0.0
2014-Sep-15 13:32N 33°44' W 118°09'0 0.1
2014-Sep-15 12:32N 33°44' W 118°09'0 0.0
2014-Sep-15 11:32N 33°44' W 118°09'0 0.0
2014-Sep-15 10:32N 33°44' W 118°09'0 0.0
2014-Sep-15 09:32N 33°44' W 118°09'0 0.0
2014-Sep-15 08:32N 33°44' W 118°09'0 0.1
2014-Sep-15 07:32N 33°44' W 118°09'0 0.1
2014-Sep-15 06:32N 33°44' W 118°09'0 0.0
2014-Sep-15 05:32N 33°44' W 118°09'0 0.0
2014-Sep-15 04:32N 33°44' W 118°09'0 0.1
2014-Sep-15 03:32N 33°44' W 118°09'0 0.0
2014-Sep-15 02:32N 33°44' W 118°09'0 0.0
2014-Sep-15 01:32N 33°44' W 118°09'0 0.0
2014-Sep-15 00:32N 33°44' W 118°09'0 0.0
2014-Sep-14 23:29N 33°44' W 118°09'0 0.0
2014-Sep-14 22:32N 33°44' W 118°09'0 0.0
2014-Sep-14 21:32N 33°44' W 118°09'0 0.0
2014-Sep-14 20:32N 33°44' W 118°09'0 0.1
2014-Sep-14 19:32N 33°44' W 118°09'0 0.1
2014-Sep-14 18:32N 33°44' W 118°09'0 0.0
2014-Sep-14 17:32N 33°44' W 118°09'0 0.1
2014-Sep-14 16:32N 33°44' W 118°09'0 0.0
2014-Sep-14 15:32N 33°44' W 118°09'0 0.1
2014-Sep-14 14:32N 33°44' W 118°09'0 0.1
2014-Sep-14 13:32N 33°44' W 118°09'0 0.0
2014-Sep-14 12:32N 33°44' W 118°09'0 0.1
2014-Sep-14 11:32N 33°44' W 118°09'0 0.1
2014-Sep-14 10:32N 33°44' W 118°09'0 0.1
2014-Sep-14 09:32N 33°44' W 118°09'0 0.1
2014-Sep-14 08:32N 33°44' W 118°09'0 0.1
2014-Sep-14 07:32N 33°44' W 118°09'0 0.1
2014-Sep-14 06:32N 33°44' W 118°09'0 0.1
2014-Sep-14 05:32N 33°44' W 118°09'0 0.0
2014-Sep-14 04:32N 33°44' W 118°09'0 0.0
2014-Sep-14 03:32N 33°44' W 118°09'0 0.0
2014-Sep-14 02:32N 33°44' W 118°09'0 0.0
2014-Sep-14 01:32N 33°44' W 118°09'0 0.0
2014-Sep-13 21:32N 33°44' W 118°09'0 0.1
2014-Sep-13 20:32N 33°44' W 118°09'0 0.0
2014-Sep-13 19:32N 33°44' W 118°09'0 0.0
2014-Sep-13 18:32N 33°44' W 118°09'0 0.0
2014-Sep-13 17:32N 33°44' W 118°09'0 0.1
2014-Sep-13 16:32N 33°44' W 118°09'0 0.1
2014-Sep-13 15:32N 33°44' W 118°09'0 0.0
2014-Sep-13 14:32N 33°44' W 118°09'0 0.0
2014-Sep-13 13:32N 33°44' W 118°09'0 0.0
2014-Sep-13 12:33N 33°44' W 118°09'0 0.0
2014-Sep-13 11:33N 33°44' W 118°09'0 0.0
2014-Sep-13 10:33N 33°44' W 118°09'0 0.3
2014-Sep-13 09:33N 33°44' W 118°10'0 0.1
2014-Sep-13 08:34N 33°44' W 118°10'2 2.1
2014-Sep-13 07:33N 33°44' W 118°12'2 1.7
2014-Sep-13 06:33N 33°45' W 118°13'0 0.0
2014-Sep-13 05:33N 33°45' W 118°13'0 0.0
2014-Sep-13 04:27N 33°45' W 118°13'0 0.0
2014-Sep-13 03:33N 33°45' W 118°13'0 0.0
2014-Sep-13 02:09N 33°45' W 118°13'0 0.0
2014-Sep-13 01:21N 33°45' W 118°13'0 0.0
2014-Sep-13 00:24N 33°45' W 118°13'0 0.0
2014-Sep-12 23:24N 33°45' W 118°13'0 0.0
2014-Sep-12 20:27N 33°45' W 118°13'0 0.0
2014-Sep-12 19:24N 33°45' W 118°13'0 0.0
2014-Sep-12 18:27N 33°45' W 118°13'0 0.0
2014-Sep-12 17:27N 33°45' W 118°13'0 0.0
2014-Sep-12 16:33N 33°45' W 118°13'0 0.0
2014-Sep-12 15:03N 33°45' W 118°13'0 0.0
2014-Sep-12 14:33N 33°45' W 118°13'0 0.0
2014-Sep-12 13:33N 33°45' W 118°13'0 0.0
2014-Sep-12 12:27N 33°45' W 118°13'0 0.0
2014-Sep-12 11:33N 33°45' W 118°13'0 0.0
2014-Sep-12 10:33N 33°45' W 118°13'0 0.0
2014-Sep-12 09:33N 33°45' W 118°13'0 0.0
2014-Sep-12 08:34N 33°45' W 118°13'2 2.1
2014-Sep-12 07:34N 33°44' W 118°11'1 1.4
2014-Sep-12 06:31N 33°44' W 118°10'0 0.0
2014-Sep-12 05:31N 33°44' W 118°10'0 0.0
2014-Sep-12 04:31N 33°44' W 118°10'0 0.0
2014-Sep-12 03:31N 33°44' W 118°10'0 0.0
2014-Sep-12 02:31N 33°44' W 118°10'0 0.0
2014-Sep-12 01:31N 33°44' W 118°10'0 0.1
2014-Sep-12 00:31N 33°44' W 118°10'0 0.1
2014-Sep-11 23:31N 33°44' W 118°10'0 0.0
2014-Sep-11 22:31N 33°44' W 118°10'0 0.0
2014-Sep-11 21:31N 33°44' W 118°10'0 0.0
2014-Sep-11 20:31N 33°44' W 118°10'0 0.0
2014-Sep-11 19:31N 33°44' W 118°10'0 0.0
2014-Sep-11 18:31N 33°44' W 118°10'0 0.0
2014-Sep-11 17:31N 33°44' W 118°10'0 0.1
2014-Sep-11 16:31N 33°44' W 118°10'0 0.0
2014-Sep-11 15:31N 33°44' W 118°10'0 0.1
2014-Sep-11 14:31N 33°44' W 118°10'0 0.1
2014-Sep-11 13:31N 33°44' W 118°10'0 0.0
2014-Sep-11 12:31N 33°44' W 118°10'0 0.1
2014-Sep-11 11:31N 33°44' W 118°10'0 0.1
2014-Sep-11 10:31N 33°44' W 118°10'0 0.2
2014-Sep-11 09:31N 33°44' W 118°10'0 0.0
2014-Sep-11 08:31N 33°44' W 118°10'0 0.1
2014-Sep-11 07:31N 33°44' W 118°10'  

Dump ship's entire track history